Artemis — PFCB — position and weather

sailwx.info

Track history (hours):
 
Tides and Currents Weather Stations Pressure Air Temp Water Temp Dewpoint Dewpoint Depression Visibility Wind Speed Wind Dir Waves Ship Positions

Artemis (Netherlands)

Ship's website: http://www.tallship-company.com/artemis/gb_artemis.htm

Last reported at 2017-Jun-26 12:00 UTC. Time now 2017-Jun-26 12:12 UTC.
Position N 54°32' E 010°40'.

Length 59 m; draft 3.4 m.

Type: Sailing vessel. MMSI: 244875000.

Date/timePositionNaut miles runAvg speedWind from/ knotsBaromVisibWave heightAir tempDewpointWater temp
2017-Jun-26 12:00N 54°32' E 010°40'4 8.0
2017-Jun-26 11:30N 54°32' E 010°34'4 8.3
2017-Jun-26 10:59N 54°30' E 010°27'4 8.3
2017-Jun-26 10:30N 54°28' E 010°20'4 7.4
2017-Jun-26 10:00N 54°26' E 010°15'3 7.0
2017-Jun-26 09:30N 54°23' E 010°12'2 2.6
2017-Jun-26 08:41N 54°22' E 010°09'0 0.0
2017-Jun-26 08:29N 54°22' E 010°09'0 0.0
2017-Jun-26 07:53N 54°22' E 010°09'0 0.2
2017-Jun-26 07:30N 54°22' E 010°09'2 3.7
2017-Jun-26 07:00N 54°20' E 010°10'2 3.6
2017-Jun-26 06:30N 54°19' E 010°08'0 0.0
2017-Jun-26 06:00N 54°19' E 010°08'0 0.0
2017-Jun-26 01:12N 54°19' E 010°08'0 0.0
2017-Jun-26 00:51N 54°19' E 010°08'0 0.1
2017-Jun-26 00:30N 54°19' E 010°08'0 0.1
2017-Jun-25 23:54N 54°19' E 010°08'0 0.0
2017-Jun-25 23:24N 54°19' E 010°08'0 0.0
2017-Jun-25 23:00N 54°19' E 010°08'0 0.0
2017-Jun-25 22:30N 54°19' E 010°08'0 0.0
2017-Jun-25 22:00N 54°19' E 010°08'1 2.2
2017-Jun-25 21:30N 54°20' E 010°09'1 1.7
2017-Jun-25 21:00N 54°21' E 010°10'1 2.9
2017-Jun-25 20:30N 54°22' E 010°11'2 4.3
2017-Jun-25 20:00N 54°24' E 010°12'1 2.9
2017-Jun-25 19:30N 54°23' E 010°11'2 3.3
2017-Jun-25 19:00N 54°21' E 010°10'1 2.7
2017-Jun-25 18:30N 54°20' E 010°09'1 1.8
2017-Jun-25 17:52N 54°19' E 010°08'0 0.0
2017-Jun-25 17:28N 54°19' E 010°08'0 0.0
2017-Jun-25 16:58N 54°19' E 010°08'0 0.0
2017-Jun-25 16:25N 54°19' E 010°08'0 0.0
2017-Jun-25 15:58N 54°19' E 010°08'0 0.0
2017-Jun-25 15:31N 54°19' E 010°08'0 0.0
2017-Jun-25 14:58N 54°19' E 010°08'0 0.0
2017-Jun-25 14:28N 54°19' E 010°08'1 1.3
2017-Jun-25 13:30N 54°20' E 010°09'2 4.7
2017-Jun-25 13:00N 54°22' E 010°11'2 4.2
2017-Jun-25 12:29N 54°24' E 010°12'2 4.7
2017-Jun-25 12:00N 54°26' E 010°14'2 4.2
2017-Jun-25 11:30N 54°28' E 010°15'2 3.1
2017-Jun-25 11:00N 54°27' E 010°14'3 5.1
2017-Jun-25 10:30N 54°25' E 010°12'6 0.7
2017-Jun-25 01:13N 54°19' E 010°08'0 0.0
2017-Jun-25 00:58N 54°19' E 010°08'0 0.0
2017-Jun-25 00:19N 54°19' E 010°08'0 0.0
2017-Jun-24 23:58N 54°19' E 010°08'0 0.0
2017-Jun-24 23:25N 54°19' E 010°08'0 0.0
2017-Jun-24 22:49N 54°19' E 010°08'0 0.0
2017-Jun-24 22:28N 54°19' E 010°08'0 0.0
2017-Jun-24 21:58N 54°19' E 010°08'0 0.0
2017-Jun-24 21:22N 54°19' E 010°08'0 0.0
2017-Jun-24 20:58N 54°19' E 010°08'1 2.5
2017-Jun-24 20:30N 54°20' E 010°09'2 4.8
2017-Jun-24 20:00N 54°22' E 010°11'2 4.2
2017-Jun-24 19:31N 54°24' E 010°12'0 0.5
2017-Jun-24 19:00N 54°24' E 010°12'2 4.3
2017-Jun-24 18:30N 54°22' E 010°11'3 5.1
2017-Jun-24 18:00N 54°20' E 010°09'1 2.3
2017-Jun-24 17:31N 54°19' E 010°08'0 0.0
2017-Jun-24 17:00N 54°19' E 010°08'0 0.0
2017-Jun-24 16:27N 54°19' E 010°08'0 0.0
2017-Jun-24 15:57N 54°19' E 010°08'0 0.0
2017-Jun-24 15:27N 54°19' E 010°08'0 0.0
2017-Jun-24 14:57N 54°19' E 010°08'0 0.0
2017-Jun-24 14:00N 54°19' E 010°08'1 2.2
2017-Jun-24 13:30N 54°20' E 010°09'3 5.4
2017-Jun-24 13:00N 54°22' E 010°11'  
2017-Jun-21 12:12N 54°26' E 010°13'1 4.9
2017-Jun-21 12:00N 54°25' E 010°12'2 3.4
2017-Jun-21 11:30N 54°23' E 010°12'2 3.8
2017-Jun-21 11:00N 54°22' E 010°10'3 6.0
2017-Jun-21 10:30N 54°19' E 010°08'0 0.1
2017-Jun-21 09:55N 54°19' E 010°08'0 0.0
2017-Jun-21 09:25N 54°19' E 010°08'0 0.0
2017-Jun-21 08:58N 54°19' E 010°08'0 0.2
2017-Jun-21 08:28N 54°19' E 010°08'0 0.2
2017-Jun-21 07:52N 54°19' E 010°08'0 0.0
2017-Jun-21 07:28N 54°19' E 010°08'0 0.0
2017-Jun-21 06:55N 54°19' E 010°08'0 0.0
2017-Jun-21 06:28N 54°19' E 010°08'0 0.0
2017-Jun-21 05:55N 54°19' E 010°08'0 0.0
2017-Jun-21 05:28N 54°19' E 010°08'0 0.0
2017-Jun-21 04:43N 54°19' E 010°08'0 0.0
2017-Jun-21 04:25N 54°19' E 010°08'0 0.0
2017-Jun-21 03:55N 54°19' E 010°08'0 0.0
2017-Jun-21 03:28N 54°19' E 010°08'0 0.0
2017-Jun-21 02:58N 54°19' E 010°08'0 0.0
2017-Jun-21 02:25N 54°19' E 010°08'0 0.0
2017-Jun-21 01:58N 54°19' E 010°08'0 0.0
2017-Jun-21 01:25N 54°19' E 010°08'0 0.0
2017-Jun-21 00:58N 54°19' E 010°08'0 0.0
2017-Jun-21 00:25N 54°19' E 010°08'0 0.0
2017-Jun-20 23:55N 54°19' E 010°08'0 0.0
2017-Jun-20 23:28N 54°19' E 010°08'0 0.0
2017-Jun-20 22:52N 54°19' E 010°08'0 0.0
2017-Jun-20 22:25N 54°19' E 010°08'0 0.8
2017-Jun-20 22:00N 54°19' E 010°08'4 8.0
2017-Jun-20 21:30N 54°23' E 010°11'3 6.7
2017-Jun-20 21:00N 54°26' E 010°12'2 3.6
2017-Jun-20 20:30N 54°28' E 010°14'1 2.4
2017-Jun-20 20:00N 54°28' E 010°16'2 3.6
2017-Jun-20 19:30N 54°27' E 010°14'1 2.6
2017-Jun-20 19:00N 54°26' E 010°13'2 4.4
2017-Jun-20 18:30N 54°24' E 010°12'3 6.1
2017-Jun-20 18:00N 54°21' E 010°10'2 3.6
2017-Jun-20 17:23N 54°19' E 010°08'0 0.0
2017-Jun-20 16:59N 54°19' E 010°08'0 0.0
2017-Jun-20 16:29N 54°19' E 010°08'  
Track history (hours):
 
Tides and Currents Weather Stations Pressure Air Temp Water Temp Dewpoint Dewpoint Depression Visibility Wind Speed Wind Dir Waves Ship Positions

Artemis (Netherlands)

Ship's website: http://www.tallship-company.com/artemis/gb_artemis.htm

Last reported at 2017-Jun-26 12:00 UTC. Time now 2017-Jun-26 12:12 UTC.
Position N 54°32' E 010°40'.

Length 59 m; draft 3.4 m.

Type: Sailing vessel. MMSI: 244875000.

Date/timePositionNaut miles runAvg speedWind from/ knotsBaromVisibWave heightAir tempDewpointWater temp
2017-Jun-26 12:00N 54°32' E 010°40'4 8.0
2017-Jun-26 11:30N 54°32' E 010°34'4 8.3
2017-Jun-26 10:59N 54°30' E 010°27'4 8.3
2017-Jun-26 10:30N 54°28' E 010°20'4 7.4
2017-Jun-26 10:00N 54°26' E 010°15'3 7.0
2017-Jun-26 09:30N 54°23' E 010°12'2 2.6
2017-Jun-26 08:41N 54°22' E 010°09'0 0.0
2017-Jun-26 08:29N 54°22' E 010°09'0 0.0
2017-Jun-26 07:53N 54°22' E 010°09'0 0.2
2017-Jun-26 07:30N 54°22' E 010°09'2 3.7
2017-Jun-26 07:00N 54°20' E 010°10'2 3.6
2017-Jun-26 06:30N 54°19' E 010°08'0 0.0
2017-Jun-26 06:00N 54°19' E 010°08'0 0.0
2017-Jun-26 01:12N 54°19' E 010°08'0 0.0
2017-Jun-26 00:51N 54°19' E 010°08'0 0.1
2017-Jun-26 00:30N 54°19' E 010°08'0 0.1
2017-Jun-25 23:54N 54°19' E 010°08'0 0.0
2017-Jun-25 23:24N 54°19' E 010°08'0 0.0
2017-Jun-25 23:00N 54°19' E 010°08'0 0.0
2017-Jun-25 22:30N 54°19' E 010°08'0 0.0
2017-Jun-25 22:00N 54°19' E 010°08'1 2.2
2017-Jun-25 21:30N 54°20' E 010°09'1 1.7
2017-Jun-25 21:00N 54°21' E 010°10'1 2.9
2017-Jun-25 20:30N 54°22' E 010°11'2 4.3
2017-Jun-25 20:00N 54°24' E 010°12'1 2.9
2017-Jun-25 19:30N 54°23' E 010°11'2 3.3
2017-Jun-25 19:00N 54°21' E 010°10'1 2.7
2017-Jun-25 18:30N 54°20' E 010°09'1 1.8
2017-Jun-25 17:52N 54°19' E 010°08'0 0.0
2017-Jun-25 17:28N 54°19' E 010°08'0 0.0
2017-Jun-25 16:58N 54°19' E 010°08'0 0.0
2017-Jun-25 16:25N 54°19' E 010°08'0 0.0
2017-Jun-25 15:58N 54°19' E 010°08'0 0.0
2017-Jun-25 15:31N 54°19' E 010°08'0 0.0
2017-Jun-25 14:58N 54°19' E 010°08'0 0.0
2017-Jun-25 14:28N 54°19' E 010°08'1 1.3
2017-Jun-25 13:30N 54°20' E 010°09'2 4.7
2017-Jun-25 13:00N 54°22' E 010°11'2 4.2
2017-Jun-25 12:29N 54°24' E 010°12'2 4.7
2017-Jun-25 12:00N 54°26' E 010°14'2 4.2
2017-Jun-25 11:30N 54°28' E 010°15'2 3.1
2017-Jun-25 11:00N 54°27' E 010°14'3 5.1
2017-Jun-25 10:30N 54°25' E 010°12'6 0.7
2017-Jun-25 01:13N 54°19' E 010°08'0 0.0
2017-Jun-25 00:58N 54°19' E 010°08'0 0.0
2017-Jun-25 00:19N 54°19' E 010°08'0 0.0
2017-Jun-24 23:58N 54°19' E 010°08'0 0.0
2017-Jun-24 23:25N 54°19' E 010°08'0 0.0
2017-Jun-24 22:49N 54°19' E 010°08'0 0.0
2017-Jun-24 22:28N 54°19' E 010°08'0 0.0
2017-Jun-24 21:58N 54°19' E 010°08'0 0.0
2017-Jun-24 21:22N 54°19' E 010°08'0 0.0
2017-Jun-24 20:58N 54°19' E 010°08'1 2.5
2017-Jun-24 20:30N 54°20' E 010°09'2 4.8
2017-Jun-24 20:00N 54°22' E 010°11'2 4.2
2017-Jun-24 19:31N 54°24' E 010°12'0 0.5
2017-Jun-24 19:00N 54°24' E 010°12'2 4.3
2017-Jun-24 18:30N 54°22' E 010°11'3 5.1
2017-Jun-24 18:00N 54°20' E 010°09'1 2.3
2017-Jun-24 17:31N 54°19' E 010°08'0 0.0
2017-Jun-24 17:00N 54°19' E 010°08'0 0.0
2017-Jun-24 16:27N 54°19' E 010°08'0 0.0
2017-Jun-24 15:57N 54°19' E 010°08'0 0.0
2017-Jun-24 15:27N 54°19' E 010°08'0 0.0
2017-Jun-24 14:57N 54°19' E 010°08'0 0.0
2017-Jun-24 14:00N 54°19' E 010°08'1 2.2
2017-Jun-24 13:30N 54°20' E 010°09'3 5.4
2017-Jun-24 13:00N 54°22' E 010°11'  
2017-Jun-21 12:12N 54°26' E 010°13'1 4.9
2017-Jun-21 12:00N 54°25' E 010°12'2 3.4
2017-Jun-21 11:30N 54°23' E 010°12'2 3.8
2017-Jun-21 11:00N 54°22' E 010°10'3 6.0
2017-Jun-21 10:30N 54°19' E 010°08'0 0.1
2017-Jun-21 09:55N 54°19' E 010°08'0 0.0
2017-Jun-21 09:25N 54°19' E 010°08'0 0.0
2017-Jun-21 08:58N 54°19' E 010°08'0 0.2
2017-Jun-21 08:28N 54°19' E 010°08'0 0.2
2017-Jun-21 07:52N 54°19' E 010°08'0 0.0
2017-Jun-21 07:28N 54°19' E 010°08'0 0.0
2017-Jun-21 06:55N 54°19' E 010°08'0 0.0
2017-Jun-21 06:28N 54°19' E 010°08'0 0.0
2017-Jun-21 05:55N 54°19' E 010°08'0 0.0
2017-Jun-21 05:28N 54°19' E 010°08'0 0.0
2017-Jun-21 04:43N 54°19' E 010°08'0 0.0
2017-Jun-21 04:25N 54°19' E 010°08'0 0.0
2017-Jun-21 03:55N 54°19' E 010°08'0 0.0
2017-Jun-21 03:28N 54°19' E 010°08'0 0.0
2017-Jun-21 02:58N 54°19' E 010°08'0 0.0
2017-Jun-21 02:25N 54°19' E 010°08'0 0.0
2017-Jun-21 01:58N 54°19' E 010°08'0 0.0
2017-Jun-21 01:25N 54°19' E 010°08'0 0.0
2017-Jun-21 00:58N 54°19' E 010°08'0 0.0
2017-Jun-21 00:25N 54°19' E 010°08'0 0.0
2017-Jun-20 23:55N 54°19' E 010°08'0 0.0
2017-Jun-20 23:28N 54°19' E 010°08'0 0.0
2017-Jun-20 22:52N 54°19' E 010°08'0 0.0
2017-Jun-20 22:25N 54°19' E 010°08'0 0.8
2017-Jun-20 22:00N 54°19' E 010°08'4 8.0
2017-Jun-20 21:30N 54°23' E 010°11'3 6.7
2017-Jun-20 21:00N 54°26' E 010°12'2 3.6
2017-Jun-20 20:30N 54°28' E 010°14'1 2.4
2017-Jun-20 20:00N 54°28' E 010°16'2 3.6
2017-Jun-20 19:30N 54°27' E 010°14'1 2.6
2017-Jun-20 19:00N 54°26' E 010°13'2 4.4
2017-Jun-20 18:30N 54°24' E 010°12'3 6.1
2017-Jun-20 18:00N 54°21' E 010°10'2 3.6
2017-Jun-20 17:23N 54°19' E 010°08'0 0.0
2017-Jun-20 16:59N 54°19' E 010°08'0 0.0
2017-Jun-20 16:29N 54°19' E 010°08'  

Dump ship's entire track history